Impacts TAF Board
For situational awareness. Not to be used for flight planning purposes.
IDs:

KRSW - Ft Myers/SW Florida, FL, US

Issued at 1740 UTC 21 Sep 2021
Updated at 2015 UTC 21 Sep 2021
Potential Impact None Slight Moderate High
Time1953Z 21/21Z 21/22Z 21/23Z 22/00Z 22/01Z 22/02Z 22/03Z 22/04Z 22/05Z 22/06Z 22/07Z 22/08Z 22/09Z>>
Type OBS PRVL
  [TEMP]  
PRVL PRVL PRVL PRVL PRVL PRVL PRVL PRVL PRVL PRVL PRVL PRVL
VIS 10 >6
  [2]  
>6 >6 >6 >6 >6 >6 >6 >6 >6 >6 >6 >6
CIG 110 50
  [30]  
50 50 50 50 250 250 250 250 250 250 250 250
Cover BKN BKN
  [BKN]  
BKN BKN BKN BKN BKN BKN BKN BKN BKN BKN BKN BKN
FltCat VFR VFR
  [IFR]  
VFR VFR VFR VFR VFR VFR VFR VFR VFR VFR VFR VFR
WX -RA VCTS
  [+TSRA]  
VCTS VCTS VCTS VCTS -- -- -- -- -- -- -- --
WDir 50 120
[VRB]
90 90 90 90 VRB VRB VRB VRB VRB VRB VRB VRB
WSpd 6 6
  [15]  
7 7 7 7 3 3 3 3 3 3 3 3
WGst -- --
  [25]  
-- -- -- -- -- -- -- -- -- -- -- --
Raw TAF
KRSW 211740Z 2118/2218 12006KT P6SM VCTS SCT030CB BKN050
  TEMPO 2118/2122 VRB15G25KT 2SM +TSRA BKN030CB
  FM212200 09007KT P6SM VCTS SCT030CB BKN050
  FM220200 VRB03KT P6SM FEW025 SCT120 BKN250
  FM221500 23004KT P6SM VCSH SCT025 BKN250


Raw METAR
KRSW 211953Z 05006KT 10SM -RA FEW017 SCT030 BKN110 24/22 A3002 RMK AO2 LTG DSNT ALQDS TSB23E38 SLP164 P0007 T02390222
KRSW 211944Z 04005KT 10SM VCTS RA FEW018 BKN030 OVC110 24/22 A3002 RMK AO2 LTG DSNT ALQDS TSB23E38 P0007 T02390222
KRSW 211929Z 03008KT 10SM -TSRA FEW016 BKN080 OVC110 23/22 A3004 RMK AO2 LTG DSNT ALQDS TSB23 P0005 T02330222
KRSW 211853Z 00000KT 5SM VCTS RA BR FEW006 BKN060 OVC095 24/23 A3002 RMK AO2 WSHFT 1754 LTG DSNT ALQDS RAB1757 TSB1756E25 SLP163 P0016 T02440228
KRSW 211851Z 00000KT 5SM VCTS RA BR FEW006 BKN060 OVC090 24/23 A3002 RMK AO2 WSHFT 1754 LTG DSNT ALQDS RAB1757 TSB1756E25 P0016
KRSW 211830Z 24008KT 5SM VCTS +RA BR FEW018 BKN043 OVC055 24/22 A3002 RMK AO2 WSHFT 1754 LTG DSNT ALQDS RAB1757 TSB1756E25 P0007 T02390217
KRSW 211814Z 27012KT 6SM TSRA BR BKN027 BKN042 OVC085 25/23 A3002 RMK AO2 WSHFT 1754 LTG DSNT SE AND S RAB1757 TSB1756 LTG ICCCCG OVHD ALQDS TS OVHD MOV ESE P0001 T02500228
KRSW 211756Z 24011KT 10SM TS FEW027 SCT040 BKN060 29/23 A3002 RMK AO2 LTG DSNT N AND NE AND S TSB56 T02890228
KRSW 211753Z 20009KT 180V240 10SM FEW040 SCT060 BKN085 29/23 A3002 RMK AO2 LTG DSNT N AND NE AND S SLP162 T02940233 10311 20244 58013

METAR Board
Radar Display
Forecast Discussion
For situational awareness. Not to be used for flight planning purposes.